createdAt,value
2018-01-25T00:00:06.034Z,8.95
2018-01-25T00:01:27.642Z,8.96
2018-01-25T00:02:49.551Z,8.99
2018-01-25T00:04:11.432Z,8.96
2018-01-25T00:05:33.561Z,9.1
2018-01-25T00:06:55.153Z,8.99
2018-01-25T00:08:16.747Z,9.02
2018-01-25T00:09:38.338Z,8.98
2018-01-25T00:11:00.561Z,8.96
2018-01-25T00:12:22.163Z,8.99
2018-01-25T00:13:44.051Z,9.01
2018-01-25T00:15:06.213Z,8.96
2018-01-25T00:16:28.453Z,9.05
2018-01-25T00:17:49.803Z,9.14
2018-01-25T00:19:11.482Z,9.08
2018-01-25T00:20:33.335Z,8.95
2018-01-25T00:21:55.192Z,9.01
2018-01-25T00:23:17.052Z,9.01
2018-01-25T00:24:39.132Z,9.04
2018-01-25T00:26:00.253Z,9.02
2018-01-25T00:27:22.400Z,8.98
2018-01-25T00:28:44.248Z,9.11
2018-01-25T00:30:05.580Z,8.98
2018-01-25T00:31:27.461Z,9.01
2018-01-25T00:32:48.776Z,9.08
2018-01-25T00:34:10.786Z,8.98
2018-01-25T00:35:32.802Z,9.1
2018-01-25T00:36:54.170Z,8.96
2018-01-25T00:38:15.750Z,8.96
2018-01-25T00:39:37.372Z,9.02
2018-01-25T00:40:59.267Z,9.1
2018-01-25T00:42:20.872Z,8.95
2018-01-25T00:43:42.732Z,9.04
2018-01-25T00:45:04.664Z,9.02
2018-01-25T00:46:26.283Z,9.05
2018-01-25T00:47:48.410Z,9.02
2018-01-25T00:49:10.023Z,8.99
2018-01-25T00:50:31.958Z,9.05
2018-01-25T00:51:53.427Z,8.92
2018-01-25T00:53:15.391Z,9.02
2018-01-25T00:54:37.239Z,8.99
2018-01-25T00:55:59.490Z,9.04
2018-01-25T00:57:21.351Z,8.98
2018-01-25T00:58:42.922Z,8.96
2018-01-25T01:00:04.525Z,8.99
2018-01-25T01:01:26.662Z,9.04
2018-01-25T01:02:48.057Z,8.96
2018-01-25T01:04:10.266Z,8.96
2018-01-25T01:05:32.423Z,8.99
2018-01-25T01:06:54.295Z,9.04
2018-01-25T01:08:16.002Z,9.02
2018-01-25T01:09:37.658Z,9.1
2018-01-25T01:10:59.517Z,9.04
2018-01-25T01:12:20.943Z,9.05
2018-01-25T01:13:42.829Z,9.04
2018-01-25T01:15:05.284Z,9.05
2018-01-25T01:16:27.422Z,8.98
2018-01-25T01:17:49.012Z,8.99
2018-01-25T01:19:10.494Z,9.05
2018-01-25T01:20:32.350Z,8.95
2018-01-25T01:21:53.951Z,9.04
2018-01-25T01:23:15.814Z,8.98
2018-01-25T01:24:37.672Z,9.1
2018-01-25T01:26:00.044Z,8.96
2018-01-25T01:27:21.649Z,9.08
2018-01-25T01:28:43.541Z,9.13
2018-01-25T01:30:05.025Z,9.01
2018-01-25T01:31:27.532Z,9.1
2018-01-25T01:32:49.386Z,9.11
2018-01-25T01:34:11.013Z,9.01
2018-01-25T01:35:32.860Z,8.96
2018-01-25T01:36:54.774Z,9.02
2018-01-25T01:38:16.672Z,8.96
2018-01-25T01:39:38.263Z,9.04
2018-01-25T01:41:00.384Z,9.05
2018-01-25T01:42:22.251Z,9.08
2018-01-25T01:43:43.852Z,9.08
2018-01-25T01:45:05.196Z,9.04
2018-01-25T01:46:27.545Z,9.04
2018-01-25T01:47:49.745Z,9.1
2018-01-25T01:49:11.891Z,8.95
2018-01-25T01:50:33.537Z,9.1
2018-01-25T01:51:55.172Z,9.13
2018-01-25T01:53:17.170Z,9.04
2018-01-25T01:54:39.365Z,9.08
2018-01-25T01:56:01.223Z,9.11
2018-01-25T01:57:23.072Z,9.1
2018-01-25T01:58:45.183Z,9.05
2018-01-25T02:00:07.232Z,9.04
2018-01-25T02:01:29.251Z,8.98
2018-01-25T02:02:51.282Z,8.99
2018-01-25T02:04:12.636Z,9.08
2018-01-25T02:05:34.750Z,9.13
2018-01-25T02:06:56.863Z,8.95
2018-01-25T02:08:18.991Z,8.98
2018-01-25T02:09:41.181Z,8.99
2018-01-25T02:11:03.055Z,9.05
2018-01-25T02:12:25.024Z,9.02
2018-01-25T02:13:46.612Z,9.01
2018-01-25T02:15:09.006Z,8.96
2018-01-25T02:16:30.671Z,8.89
2018-01-25T02:17:52.515Z,8.95
2018-01-25T02:19:14.115Z,8.98
2018-01-25T02:20:35.735Z,8.92
2018-01-25T02:21:57.377Z,8.94
2018-01-25T02:23:18.972Z,8.89
2018-01-25T02:24:40.813Z,8.94
2018-01-25T02:26:02.997Z,8.98
2018-01-25T02:27:25.141Z,8.94
2018-01-25T02:28:47.363Z,8.87
2018-01-25T02:30:09.019Z,8.83
2018-01-25T02:31:30.351Z,8.81
2018-01-25T02:32:52.204Z,8.83
2018-01-25T02:34:14.050Z,8.8
2018-01-25T02:35:35.715Z,8.81
2018-01-25T02:36:57.604Z,8.89
2018-01-25T02:38:19.606Z,8.8
2018-01-25T02:39:41.723Z,8.81
2018-01-25T02:41:03.316Z,8.81
2018-01-25T02:42:24.382Z,8.84
2018-01-25T02:43:46.246Z,8.79
2018-01-25T02:45:07.983Z,8.83
2018-01-25T02:46:29.873Z,8.76
2018-01-25T02:47:51.751Z,8.87
2018-01-25T02:49:13.511Z,8.83
2018-01-25T02:50:35.138Z,8.83
2018-01-25T02:51:56.745Z,8.84
2018-01-25T02:53:18.759Z,8.84
2018-01-25T02:54:40.955Z,8.79
2018-01-25T02:56:02.305Z,8.81
2018-01-25T02:57:23.637Z,8.84
2018-01-25T02:58:45.804Z,8.76
2018-01-25T03:00:06.895Z,8.76
2018-01-25T03:01:28.785Z,8.68
2018-01-25T03:02:50.172Z,8.7
2018-01-25T03:04:12.527Z,8.61
2018-01-25T03:05:34.118Z,8.47
2018-01-25T03:06:56.025Z,8.38
2018-01-25T03:08:17.947Z,8.37
2018-01-25T03:09:40.044Z,8.28
2018-01-25T03:11:02.001Z,8.33
2018-01-25T03:12:23.642Z,8.37
2018-01-25T03:13:45.346Z,8.4
2018-01-25T03:15:07.368Z,8.41
2018-01-25T03:16:29.042Z,8.44
2018-01-25T03:17:50.909Z,8.43
2018-01-25T03:19:13.022Z,8.5
2018-01-25T03:20:34.890Z,8.52
2018-01-25T03:21:56.761Z,8.48
2018-01-25T03:23:18.351Z,8.55
2018-01-25T03:24:39.725Z,8.56
2018-01-25T03:26:01.113Z,8.55
2018-01-25T03:27:22.201Z,8.5
2018-01-25T03:28:44.317Z,8.61
2018-01-25T03:30:06.474Z,8.56
2018-01-25T03:31:28.354Z,8.56
2018-01-25T03:32:49.683Z,8.61
2018-01-25T03:34:11.903Z,8.55
2018-01-25T03:35:33.530Z,8.71
2018-01-25T03:36:55.383Z,8.59
2018-01-25T03:38:17.488Z,8.62
2018-01-25T03:39:39.093Z,8.63
2018-01-25T03:41:01.220Z,8.63
2018-01-25T03:42:23.348Z,8.61
2018-01-25T03:43:45.097Z,8.55
2018-01-25T03:45:06.981Z,8.68
2018-01-25T03:46:29.134Z,8.56
2018-01-25T03:47:50.458Z,8.58
2018-01-25T03:49:11.590Z,8.56
2018-01-25T03:50:33.437Z,8.58
2018-01-25T03:51:55.044Z,8.56
2018-01-25T03:53:16.904Z,8.45
2018-01-25T03:54:38.770Z,8.55
2018-01-25T03:56:00.664Z,8.5
2018-01-25T03:57:22.272Z,8.48
2018-01-25T03:58:44.142Z,8.55
2018-01-25T04:00:05.759Z,8.59
2018-01-25T04:01:27.949Z,8.53
2018-01-25T04:02:49.284Z,8.62
2018-01-25T04:04:11.402Z,8.66
2018-01-25T04:05:32.993Z,8.7
2018-01-25T04:06:54.367Z,8.7
2018-01-25T04:08:16.253Z,8.68
2018-01-25T04:09:38.265Z,8.79
2018-01-25T04:10:59.876Z,8.8
2018-01-25T04:12:22.046Z,8.77
2018-01-25T04:13:43.404Z,8.8
2018-01-25T04:15:05.281Z,8.86
2018-01-25T04:16:27.235Z,8.81
2018-01-25T04:17:48.574Z,8.86
2018-01-25T04:19:10.675Z,8.92
2018-01-25T04:20:32.634Z,8.89
2018-01-25T04:21:54.574Z,8.79
2018-01-25T04:23:16.594Z,8.81
2018-01-25T04:24:38.466Z,8.8
2018-01-25T04:26:00.193Z,8.83
2018-01-25T04:27:21.936Z,8.83
2018-01-25T04:28:43.837Z,8.83
2018-01-25T04:30:05.165Z,8.94
2018-01-25T04:31:27.025Z,9.01
2018-01-25T04:32:48.613Z,8.95
2018-01-25T04:34:10.526Z,8.98
2018-01-25T04:35:32.280Z,8.95
2018-01-25T04:36:54.332Z,8.98
2018-01-25T04:38:16.172Z,8.98
2018-01-25T04:39:38.053Z,8.94
2018-01-25T04:41:00.308Z,8.98
2018-01-25T04:42:21.654Z,8.99
2018-01-25T04:43:43.354Z,8.94
2018-01-25T04:45:04.947Z,8.96
2018-01-25T04:46:27.206Z,8.91
2018-01-25T04:47:48.564Z,8.92
2018-01-25T04:49:09.817Z,8.95
2018-01-25T04:50:31.412Z,8.91
2018-01-25T04:51:53.010Z,8.87
2018-01-25T04:53:14.618Z,8.92
2018-01-25T04:54:36.055Z,8.95
2018-01-25T04:55:57.917Z,9.04
2018-01-25T04:57:19.533Z,8.95
2018-01-25T04:58:41.384Z,8.98
2018-01-25T05:00:02.993Z,8.99
2018-01-25T05:01:24.700Z,8.99
2018-01-25T05:02:46.935Z,9.04
2018-01-25T05:04:08.794Z,8.95
2018-01-25T05:05:30.768Z,8.94
2018-01-25T05:06:52.833Z,8.99
2018-01-25T05:08:14.557Z,8.95
2018-01-25T05:09:36.697Z,8.98
2018-01-25T05:10:58.455Z,8.95
2018-01-25T05:12:20.863Z,8.92
2018-01-25T05:13:42.231Z,8.92
2018-01-25T05:15:04.333Z,8.94
2018-01-25T05:16:26.584Z,8.94
2018-01-25T05:17:48.451Z,8.89
2018-01-25T05:19:09.552Z,8.95
2018-01-25T05:20:30.909Z,8.94
2018-01-25T05:21:52.774Z,8.98
2018-01-25T05:23:14.641Z,8.98
2018-01-25T05:24:36.495Z,8.91
2018-01-25T05:25:58.765Z,8.98
2018-01-25T05:27:20.513Z,8.94
2018-01-25T05:28:42.642Z,8.94
2018-01-25T05:30:04.246Z,8.96
2018-01-25T05:31:26.393Z,8.87
2018-01-25T05:32:48.062Z,9.01
2018-01-25T05:34:09.902Z,8.95
2018-01-25T05:35:31.783Z,8.81
2018-01-25T05:36:53.666Z,8.83
2018-01-25T05:38:15.533Z,8.95
2018-01-25T05:39:37.444Z,8.86
2018-01-25T05:40:59.334Z,8.84
2018-01-25T05:42:21.180Z,8.83
2018-01-25T05:43:43.033Z,8.79
2018-01-25T05:45:04.464Z,8.87
2018-01-25T05:46:26.591Z,8.73
2018-01-25T05:47:48.177Z,8.66
2018-01-25T05:49:10.041Z,8.58
2018-01-25T05:50:32.397Z,8.5
2018-01-25T05:51:54.003Z,8.33
2018-01-25T05:53:16.126Z,8.34
2018-01-25T05:54:37.839Z,8.19
2018-01-25T05:56:00.021Z,8.19
2018-01-25T05:57:21.876Z,8.18
2018-01-25T05:58:43.252Z,8.18
2018-01-25T06:00:05.196Z,8.18
2018-01-25T06:01:27.060Z,8.29
2018-01-25T06:02:48.458Z,8.33
2018-01-25T06:04:10.574Z,8.34
2018-01-25T06:05:32.161Z,8.4
2018-01-25T06:06:53.746Z,8.41
2018-01-25T06:08:15.586Z,8.43
2018-01-25T06:09:37.453Z,8.47
2018-01-25T06:10:59.182Z,8.55
2018-01-25T06:12:21.344Z,8.48
2018-01-25T06:13:43.067Z,8.55
2018-01-25T06:15:04.223Z,8.58
2018-01-25T06:16:26.213Z,8.63
2018-01-25T06:17:47.813Z,8.61
2018-01-25T06:19:09.730Z,8.62
2018-01-25T06:20:31.858Z,8.66
2018-01-25T06:21:53.455Z,8.7
2018-01-25T06:23:15.042Z,8.71
2018-01-25T06:24:37.185Z,8.66
2018-01-25T06:25:58.785Z,8.68
2018-01-25T06:27:20.634Z,8.73
2018-01-25T06:28:42.798Z,8.66
2018-01-25T06:30:04.728Z,8.68
2018-01-25T06:31:26.383Z,8.62
2018-01-25T06:32:48.222Z,8.66
2018-01-25T06:34:09.832Z,8.52
2018-01-25T06:35:31.182Z,8.52
2018-01-25T06:36:53.238Z,8.55
2018-01-25T06:38:15.365Z,8.44
2018-01-25T06:39:37.365Z,8.45
2018-01-25T06:40:58.951Z,8.45
2018-01-25T06:42:20.796Z,8.47
2018-01-25T06:43:42.702Z,8.58
2018-01-25T06:45:04.142Z,8.58
2018-01-25T06:46:25.999Z,8.56
2018-01-25T06:47:47.961Z,8.59
2018-01-25T06:49:09.544Z,8.7
2018-01-25T06:50:31.154Z,8.56
2018-01-25T06:51:53.221Z,8.73
2018-01-25T06:53:15.279Z,8.74
2018-01-25T06:54:37.174Z,8.77
2018-01-25T06:55:59.279Z,8.73
2018-01-25T06:57:21.146Z,8.76
2018-01-25T06:58:43.010Z,8.68
2018-01-25T07:00:04.610Z,8.74
2018-01-25T07:01:26.233Z,8.79
2018-01-25T07:02:47.823Z,8.77
2018-01-25T07:04:09.813Z,8.76
2018-01-25T07:05:31.430Z,8.76
2018-01-25T07:06:53.552Z,8.83
2018-01-25T07:08:15.145Z,8.73
2018-01-25T07:09:37.004Z,8.76
2018-01-25T07:10:58.347Z,8.74
2018-01-25T07:12:20.298Z,8.73
2018-01-25T07:13:42.427Z,8.8
2018-01-25T07:15:03.768Z,8.73
2018-01-25T07:16:25.874Z,8.73
2018-01-25T07:17:47.753Z,8.77
2018-01-25T07:19:09.613Z,8.77
2018-01-25T07:20:31.493Z,8.77
2018-01-25T07:21:53.184Z,8.71
2018-01-25T07:23:15.100Z,8.74
2018-01-25T07:24:37.351Z,8.8
2018-01-25T07:25:59.348Z,8.79
2018-01-25T07:27:20.423Z,8.76
2018-01-25T07:28:42.556Z,8.66
2018-01-25T07:30:04.450Z,8.65
2018-01-25T07:31:26.541Z,8.58
2018-01-25T07:32:48.128Z,8.58
2018-01-25T07:34:09.813Z,8.5
2018-01-25T07:35:31.675Z,8.47
2018-01-25T07:36:53.679Z,8.43
2018-01-25T07:38:15.267Z,8.3
2018-01-25T07:39:37.473Z,8.25
2018-01-25T07:40:59.152Z,8.29
2018-01-25T07:42:21.100Z,8.29
2018-01-25T07:43:43.051Z,8.3
2018-01-25T07:45:04.967Z,8.33
2018-01-25T07:46:27.251Z,8.34
2018-01-25T07:47:49.108Z,8.3
2018-01-25T07:49:10.553Z,8.38
2018-01-25T07:50:32.163Z,8.45
2018-01-25T07:51:53.651Z,8.5
2018-01-25T07:53:15.602Z,8.43
2018-01-25T07:54:37.235Z,8.48
2018-01-25T07:55:59.373Z,8.58
2018-01-25T07:57:21.146Z,8.68
2018-01-25T07:58:43.257Z,8.62
2018-01-25T08:00:04.854Z,8.73
2018-01-25T08:01:26.996Z,8.77
2018-01-25T08:02:49.134Z,8.76
2018-01-25T08:04:11.010Z,8.73
2018-01-25T08:05:32.345Z,8.81
2018-01-25T08:06:54.473Z,8.83
2018-01-25T08:08:15.903Z,8.81
2018-01-25T08:09:37.908Z,8.79
2018-01-25T08:11:00.153Z,8.83
2018-01-25T08:12:22.278Z,8.84
2018-01-25T08:13:44.397Z,8.96
2018-01-25T08:15:06.302Z,8.95
2018-01-25T08:16:28.011Z,8.98
2018-01-25T08:17:49.724Z,9.01
2018-01-25T08:19:11.576Z,9.08
2018-01-25T08:20:34.125Z,8.96
2018-01-25T08:21:56.597Z,9.02
2018-01-25T08:23:17.446Z,9.01
2018-01-25T08:24:39.032Z,9.11
2018-01-25T08:26:00.934Z,9.08
2018-01-25T08:27:22.815Z,9.11
2018-01-25T08:28:44.517Z,9.14
2018-01-25T08:30:06.125Z,9.21
2018-01-25T08:31:27.730Z,9.24
2018-01-25T08:32:49.593Z,9.21
2018-01-25T08:34:11.465Z,9.33
2018-01-25T08:35:33.374Z,9.32
2018-01-25T08:36:55.119Z,9.32
2018-01-25T08:38:16.605Z,9.4
2018-01-25T08:39:38.533Z,9.38
2018-01-25T08:40:59.607Z,9.42
2018-01-25T08:42:21.476Z,9.43
2018-01-25T08:43:43.646Z,9.39
2018-01-25T08:45:05.505Z,9.5
2018-01-25T08:46:27.374Z,9.58
2018-01-25T08:47:49.593Z,9.5
2018-01-25T08:49:11.722Z,9.6
2018-01-25T08:50:33.343Z,9.58
2018-01-25T08:51:54.928Z,9.64
2018-01-25T08:53:16.899Z,9.66
2018-01-25T08:54:38.778Z,9.65
2018-01-25T08:56:00.386Z,9.75
2018-01-25T08:57:22.499Z,9.83
2018-01-25T08:58:44.094Z,9.91
2018-01-25T09:00:06.028Z,9.94
2018-01-25T09:01:27.735Z,9.93
2018-01-25T09:02:49.334Z,10.07
2018-01-25T09:04:10.932Z,10.18
2018-01-25T09:05:32.799Z,10.14
2018-01-25T09:06:54.672Z,10.15
2018-01-25T09:08:16.668Z,10.18
2018-01-25T09:09:38.588Z,10.17
2018-01-25T09:11:00.207Z,10.15
2018-01-25T09:12:21.883Z,10.08
2018-01-25T09:13:43.847Z,10.12
2018-01-25T09:15:05.420Z,10.15
2018-01-25T09:16:27.043Z,10.14
2018-01-25T09:17:48.943Z,10.27
2018-01-25T09:19:10.823Z,10.33
2018-01-25T09:20:32.194Z,10.38
2018-01-25T09:21:54.080Z,10.44
2018-01-25T09:23:15.988Z,10.45
2018-01-25T09:24:38.008Z,10.51
2018-01-25T09:25:59.088Z,10.56
2018-01-25T09:27:20.744Z,10.64
2018-01-25T09:28:42.673Z,10.63
2018-01-25T09:30:04.642Z,10.6
2018-01-25T09:31:26.543Z,10.84
2018-01-25T09:32:48.431Z,10.88
2018-01-25T09:34:10.533Z,11
2018-01-25T09:35:32.452Z,11.1
2018-01-25T09:36:54.213Z,11.18
2018-01-25T09:38:16.074Z,11.37
2018-01-25T09:39:37.926Z,11.49
2018-01-25T09:40:59.559Z,11.64
2018-01-25T09:42:21.799Z,11.57
2018-01-25T09:43:43.689Z,11.6
2018-01-25T09:45:05.097Z,11.54
2018-01-25T09:46:26.716Z,11.58
2018-01-25T09:47:48.043Z,11.54
2018-01-25T09:49:09.641Z,11.37
2018-01-25T09:50:31.509Z,11.32
2018-01-25T09:51:53.434Z,11.35
2018-01-25T09:53:15.382Z,11.22
2018-01-25T09:54:36.988Z,11.22
2018-01-25T09:55:58.613Z,11.22
2018-01-25T09:57:20.722Z,11.19
2018-01-25T09:58:42.378Z,11.15
2018-01-25T10:00:04.506Z,11.09
2018-01-25T10:01:26.105Z,10.97
2018-01-25T10:02:47.691Z,10.97
2018-01-25T10:04:09.591Z,10.99
2018-01-25T10:05:31.818Z,10.92
2018-01-25T10:06:53.668Z,10.92
2018-01-25T10:08:15.142Z,10.86
2018-01-25T10:09:37.126Z,10.71
2018-01-25T10:10:58.975Z,10.64
2018-01-25T10:12:21.090Z,10.59
2018-01-25T10:13:43.010Z,10.61
2018-01-25T10:15:05.132Z,10.6
2018-01-25T10:16:27.003Z,10.7
2018-01-25T10:17:48.609Z,10.66
2018-01-25T10:19:10.496Z,10.52
2018-01-25T10:20:31.597Z,10.48
2018-01-25T10:21:53.208Z,10.47
2018-01-25T10:23:15.337Z,10.6
2018-01-25T10:24:37.261Z,10.63
2018-01-25T10:25:59.433Z,10.61
2018-01-25T10:27:21.292Z,10.67
2018-01-25T10:28:42.892Z,10.76
2018-01-25T10:30:04.540Z,10.84
2018-01-25T10:31:26.144Z,10.94
2018-01-25T10:32:47.756Z,11.11
2018-01-25T10:34:09.365Z,11.17
2018-01-25T10:35:31.228Z,11.28
2018-01-25T10:36:53.112Z,11.39
2018-01-25T10:38:14.942Z,11.28
2018-01-25T10:39:37.082Z,11.29
2018-01-25T10:40:59.073Z,11.33
2018-01-25T10:42:20.994Z,11.51
2018-01-25T10:43:42.962Z,11.49
2018-01-25T10:45:05.091Z,11.58
2018-01-25T10:46:26.453Z,11.57
2018-01-25T10:47:48.736Z,11.57
2018-01-25T10:49:10.865Z,11.6
2018-01-25T10:50:32.750Z,11.62
2018-01-25T10:51:54.894Z,11.6
2018-01-25T10:53:16.527Z,11.51
2018-01-25T10:54:37.879Z,11.54
2018-01-25T10:55:59.977Z,11.52
2018-01-25T10:57:21.843Z,11.37
2018-01-25T10:58:43.972Z,11.47
2018-01-25T11:00:05.144Z,11.46
2018-01-25T11:01:27.019Z,11.47
2018-01-25T11:02:49.014Z,11.37
2018-01-25T11:04:11.219Z,11.36
2018-01-25T11:05:32.834Z,11.39
2018-01-25T11:06:54.484Z,11.22
2018-01-25T11:08:16.344Z,11.35
2018-01-25T11:09:38.573Z,11.49
2018-01-25T11:11:00.433Z,11.57
2018-01-25T11:12:22.731Z,11.57
2018-01-25T11:13:43.811Z,11.58
2018-01-25T11:15:05.802Z,11.69
2018-01-25T11:16:27.694Z,11.73
2018-01-25T11:17:49.794Z,11.69
2018-01-25T11:19:11.400Z,11.61
2018-01-25T11:20:33.276Z,11.64
2018-01-25T11:21:55.388Z,11.7
2018-01-25T11:23:17.575Z,11.7
2018-01-25T11:24:38.935Z,11.73
2018-01-25T11:26:00.564Z,11.78
2018-01-25T11:27:21.953Z,11.69
2018-01-25T11:28:43.313Z,11.61
2018-01-25T11:30:04.403Z,11.62
2018-01-25T11:31:26.416Z,11.65
2018-01-25T11:32:48.029Z,11.58
2018-01-25T11:34:09.879Z,11.54
2018-01-25T11:35:31.724Z,11.52
2018-01-25T11:36:53.592Z,11.47
2018-01-25T11:38:15.177Z,11.46
2018-01-25T11:39:37.112Z,11.61
2018-01-25T11:40:59.210Z,11.67
2018-01-25T11:42:20.966Z,11.69
2018-01-25T11:43:43.283Z,11.69
2018-01-25T11:45:05.397Z,11.62
2018-01-25T11:46:27.308Z,11.55
2018-01-25T11:47:49.492Z,11.55
2018-01-25T11:49:11.330Z,11.64
2018-01-25T11:50:32.921Z,11.69
2018-01-25T11:51:54.532Z,11.62
2018-01-25T11:53:16.160Z,11.61
2018-01-25T11:54:37.766Z,11.7
2018-01-25T11:55:59.465Z,11.72
2018-01-25T11:57:21.494Z,11.67
2018-01-25T11:58:42.903Z,11.65
2018-01-25T12:00:04.483Z,11.79
2018-01-25T12:01:25.849Z,11.73
2018-01-25T12:02:47.466Z,11.85
2018-01-25T12:04:09.345Z,11.76
2018-01-25T12:05:31.406Z,11.94
2018-01-25T12:06:53.363Z,11.86
2018-01-25T12:08:15.637Z,11.94
2018-01-25T12:09:37.927Z,11.9
2018-01-25T12:10:59.563Z,11.76
2018-01-25T12:12:21.688Z,11.76
2018-01-25T12:13:43.552Z,11.8
2018-01-25T12:15:05.476Z,11.65
2018-01-25T12:16:27.333Z,11.61
2018-01-25T12:17:49.522Z,11.58
2018-01-25T12:19:10.701Z,11.51
2018-01-25T12:20:32.323Z,11.47
2018-01-25T12:21:54.252Z,11.49
2018-01-25T12:23:15.846Z,11.57
2018-01-25T12:24:37.733Z,11.58
2018-01-25T12:25:59.611Z,11.67
2018-01-25T12:27:21.478Z,11.64
2018-01-25T12:28:42.883Z,11.75
2018-01-25T12:30:04.767Z,11.85
2018-01-25T12:31:26.468Z,11.65
2018-01-25T12:32:48.060Z,11.62
2018-01-25T12:34:09.984Z,11.6
2018-01-25T12:35:31.571Z,11.52
2018-01-25T12:36:53.421Z,11.49
2018-01-25T12:38:15.063Z,11.51
2018-01-25T12:39:36.672Z,11.52
2018-01-25T12:40:58.528Z,11.44
2018-01-25T12:42:20.463Z,11.44
2018-01-25T12:43:42.744Z,11.54
2018-01-25T12:45:04.882Z,11.6
2018-01-25T12:46:26.491Z,11.57
2018-01-25T12:47:47.902Z,11.57
2018-01-25T12:49:09.783Z,11.6
2018-01-25T12:50:31.821Z,11.57
2018-01-25T12:51:53.426Z,11.52
2018-01-25T12:53:15.434Z,11.55
2018-01-25T12:54:37.625Z,11.54
2018-01-25T12:55:59.562Z,11.52
2018-01-25T12:57:21.439Z,11.6
2018-01-25T12:58:43.309Z,11.61
2018-01-25T13:00:05.558Z,11.55
2018-01-25T13:01:27.796Z,11.51
2018-01-25T13:02:49.778Z,11.35
2018-01-25T13:04:11.540Z,11.37
2018-01-25T13:05:33.403Z,11.36
2018-01-25T13:06:55.380Z,11.33
2018-01-25T13:08:17.265Z,11.42
2018-01-25T13:09:39.301Z,11.36
2018-01-25T13:11:01.203Z,11.33
2018-01-25T13:12:22.892Z,11.29
2018-01-25T13:13:45.057Z,11.28
2018-01-25T13:15:06.685Z,11.25
2018-01-25T13:16:28.798Z,11.32
2018-01-25T13:17:50.943Z,11.32
2018-01-25T13:19:12.823Z,11.33
2018-01-25T13:20:35.098Z,11.36
2018-01-25T13:21:56.792Z,11.33
2018-01-25T13:23:18.171Z,11.32
2018-01-25T13:24:40.147Z,11.33
2018-01-25T13:26:01.822Z,11.24
2018-01-25T13:27:23.453Z,11.32
2018-01-25T13:28:45.612Z,11.37
2018-01-25T13:30:07.817Z,11.37
2018-01-25T13:31:29.503Z,11.46
2018-01-25T13:32:51.463Z,11.42
2018-01-25T13:34:13.234Z,11.51
2018-01-25T13:35:34.850Z,11.54
2018-01-25T13:36:56.717Z,11.57
2018-01-25T13:38:18.680Z,11.54
2018-01-25T13:39:40.654Z,11.49
2018-01-25T13:41:02.526Z,11.52
2018-01-25T13:42:24.659Z,11.36
2018-01-25T13:43:45.992Z,11.29
2018-01-25T13:45:07.945Z,11.35
2018-01-25T13:46:29.983Z,11.28
2018-01-25T13:47:52.116Z,11.32
2018-01-25T13:49:14.328Z,11.28
2018-01-25T13:50:36.468Z,11.27
2018-01-25T13:51:58.739Z,11.24
2018-01-25T13:53:20.454Z,11.19
2018-01-25T13:54:42.090Z,11.06
2018-01-25T13:56:03.976Z,11.06
2018-01-25T13:57:25.886Z,11.03
2018-01-25T13:58:47.741Z,10.96
2018-01-25T14:00:09.492Z,10.99
2018-01-25T14:01:30.593Z,10.96
2018-01-25T14:02:52.961Z,10.89
2018-01-25T14:04:14.823Z,10.88
2018-01-25T14:05:36.716Z,10.91
2018-01-25T14:06:58.855Z,10.74
2018-01-25T14:08:20.212Z,10.81
2018-01-25T14:09:42.351Z,10.81
2018-01-25T14:11:03.721Z,10.71
2018-01-25T14:12:25.890Z,10.74
2018-01-25T14:13:48.142Z,10.7
2018-01-25T14:15:10.025Z,10.78
2018-01-25T14:16:32.021Z,10.66
2018-01-25T14:17:54.117Z,10.63
2018-01-25T14:19:16.253Z,10.66
2018-01-25T14:20:38.137Z,10.67
2018-01-25T14:22:00.035Z,10.63
2018-01-25T14:23:21.922Z,10.56
2018-01-25T14:24:43.955Z,10.59
2018-01-25T14:26:06.096Z,10.56
2018-01-25T14:27:28.043Z,10.48
2018-01-25T14:28:50.180Z,10.42
2018-01-25T14:30:12.126Z,10.45
2018-01-25T14:31:33.833Z,10.41
2018-01-25T14:32:55.960Z,10.42
2018-01-25T14:34:18.009Z,10.4
2018-01-25T14:35:39.913Z,10.3
2018-01-25T14:37:02.046Z,10.29
2018-01-25T14:38:23.938Z,10.36
2018-01-25T14:39:46.095Z,10.26
2018-01-25T14:41:08.265Z,10.27
2018-01-25T14:42:29.733Z,10.29
2018-01-25T14:43:51.632Z,10.29
2018-01-25T14:45:13.791Z,10.3
2018-01-25T14:46:35.925Z,10.3
2018-01-25T14:47:57.540Z,10.17
2018-01-25T14:49:19.412Z,10.17
2018-01-25T14:50:41.289Z,10.14
2018-01-25T14:52:02.926Z,10.15
2018-01-25T14:53:25.334Z,9.99
2018-01-25T14:54:47.302Z,10.02
2018-01-25T14:56:09.452Z,9.89
2018-01-25T14:57:31.613Z,9.93
2018-01-25T14:58:53.517Z,9.87
2018-01-25T15:00:15.510Z,9.83
2018-01-25T15:01:37.664Z,9.89
2018-01-25T15:02:59.922Z,9.81
2018-01-25T15:04:21.509Z,9.76
2018-01-25T15:05:44.026Z,9.71
2018-01-25T15:07:05.386Z,9.6
2018-01-25T15:08:27.283Z,9.64
2018-01-25T15:09:49.210Z,9.54
2018-01-25T15:11:11.154Z,9.58
2018-01-25T15:12:33.366Z,9.42
2018-01-25T15:13:55.452Z,9.43
2018-01-25T15:15:17.609Z,9.43
2018-01-25T15:16:39.765Z,9.48
2018-01-25T15:18:01.914Z,9.5
2018-01-25T15:19:23.813Z,9.38
2018-01-25T15:20:45.937Z,9.32
2018-01-25T15:22:08.073Z,9.29
2018-01-25T15:23:30.206Z,9.31
2018-01-25T15:24:52.392Z,9.29
2018-01-25T15:26:14.387Z,9.29
2018-01-25T15:27:36.548Z,9.21
2018-01-25T15:28:58.959Z,9.26
2018-01-25T15:30:20.984Z,9.31
2018-01-25T15:31:43.184Z,9.31
2018-01-25T15:33:05.327Z,9.46
2018-01-25T15:34:27.482Z,9.42
2018-01-25T15:35:49.367Z,9.6
2018-01-25T15:37:11.283Z,9.6
2018-01-25T15:38:33.456Z,9.58
2018-01-25T15:39:55.665Z,9.65
2018-01-25T15:41:17.594Z,9.58
2018-01-25T15:42:39.831Z,9.56
2018-01-25T15:44:02.106Z,9.6
2018-01-25T15:45:24.312Z,9.61
2018-01-25T15:46:46.209Z,9.56
2018-01-25T15:48:08.492Z,9.58
2018-01-25T15:49:30.132Z,9.57
2018-01-25T15:50:52.323Z,9.42
2018-01-25T15:52:13.946Z,9.42
2018-01-25T15:53:36.134Z,9.39
2018-01-25T15:54:57.846Z,9.29
2018-01-25T15:56:19.794Z,9.33
2018-01-25T15:57:42.209Z,9.23
2018-01-25T15:59:04.410Z,9.24
2018-01-25T16:00:26.066Z,9.17
2018-01-25T16:01:48.433Z,9.11
2018-01-25T16:03:10.597Z,9.13
2018-01-25T16:04:32.593Z,8.98
2018-01-25T16:05:54.824Z,9.11
2018-01-25T16:07:16.771Z,8.96
2018-01-25T16:08:38.687Z,8.96
2018-01-25T16:10:01.061Z,8.92
2018-01-25T16:11:23.103Z,8.89
2018-01-25T16:12:44.767Z,8.98
2018-01-25T16:14:06.976Z,8.98
2018-01-25T16:15:29.167Z,8.95
2018-01-25T16:16:51.514Z,8.91
2018-01-25T16:18:13.734Z,8.81
2018-01-25T16:19:36.000Z,8.86
2018-01-25T16:20:58.044Z,8.79
2018-01-25T16:22:20.250Z,8.76
2018-01-25T16:23:42.192Z,8.76
2018-01-25T16:25:04.445Z,8.81
2018-01-25T16:26:26.085Z,8.66
2018-01-25T16:27:48.343Z,8.65
2018-01-25T16:29:10.504Z,8.68
2018-01-25T16:30:32.443Z,8.65
2018-01-25T16:31:54.399Z,8.71
2018-01-25T16:33:16.555Z,8.53
2018-01-25T16:34:38.732Z,8.58
2018-01-25T16:36:01.142Z,8.56
2018-01-25T16:37:22.782Z,8.5
2018-01-25T16:38:44.768Z,8.52
2018-01-25T16:40:06.653Z,8.52
2018-01-25T16:41:28.926Z,8.52
2018-01-25T16:42:51.100Z,8.53
2018-01-25T16:44:13.288Z,8.48
2018-01-25T16:45:35.427Z,8.47
2018-01-25T16:46:57.626Z,8.45
2018-01-25T16:48:19.667Z,8.47
2018-01-25T16:49:41.814Z,8.53
2018-01-25T16:51:03.969Z,8.56
2018-01-25T16:52:25.342Z,8.48
2018-01-25T16:53:47.232Z,8.5
2018-01-25T16:55:09.453Z,8.47
2018-01-25T16:56:31.644Z,8.53
2018-01-25T16:57:53.845Z,8.5
2018-01-25T16:59:15.716Z,8.45
2018-01-25T17:00:37.925Z,8.44
2018-01-25T17:02:00.067Z,8.43
2018-01-25T17:03:22.018Z,8.45
2018-01-25T17:04:44.198Z,8.38
2018-01-25T17:06:06.325Z,8.43
2018-01-25T17:07:28.535Z,8.44
2018-01-25T17:08:50.202Z,8.41
2018-01-25T17:10:12.224Z,8.43
2018-01-25T17:11:34.415Z,8.43
2018-01-25T17:12:56.635Z,8.38
2018-01-25T17:14:18.566Z,8.43
2018-01-25T17:15:40.716Z,8.41
2018-01-25T17:17:02.366Z,8.43
2018-01-25T17:18:24.710Z,8.44
2018-01-25T17:19:46.906Z,8.45
2018-01-25T17:21:09.212Z,8.53
2018-01-25T17:22:31.410Z,8.52
2018-01-25T17:23:53.576Z,8.5
2018-01-25T17:25:15.846Z,8.44
2018-01-25T17:26:37.810Z,8.53
2018-01-25T17:28:00.094Z,8.5
2018-01-25T17:29:22.064Z,8.5
2018-01-25T17:30:44.024Z,8.58
2018-01-25T17:32:05.645Z,8.53
2018-01-25T17:33:27.606Z,8.5
2018-01-25T17:34:49.794Z,8.55
2018-01-25T17:36:11.968Z,8.7
2018-01-25T17:37:33.891Z,8.61
2018-01-25T17:38:55.783Z,8.59
2018-01-25T17:40:17.456Z,8.55
2018-01-25T17:41:39.114Z,8.62
2018-01-25T17:43:01.050Z,8.66
2018-01-25T17:44:23.283Z,8.65
2018-01-25T17:45:45.523Z,8.55
2018-01-25T17:47:07.607Z,8.66
2018-01-25T17:48:29.533Z,8.68
2018-01-25T17:49:51.209Z,8.7
2018-01-25T17:51:13.456Z,8.71
2018-01-25T17:52:35.465Z,8.68
2018-01-25T17:53:57.624Z,8.65
2018-01-25T17:55:19.534Z,8.7
2018-01-25T17:56:41.755Z,8.71
2018-01-25T17:58:03.665Z,8.71
2018-01-25T17:59:25.909Z,8.66
2018-01-25T18:00:48.076Z,8.7